Latest Weather Observations for Flinders Reef

IDQ60801

Issued at 5:32 pm EST Friday 4 September 2015 (issued every 30 minutes, with the page automatically refreshed every 10 minutes)

About weather observations | Map of weather stations | Latest weather observations for QLD | Other Formats
Station Details ID: 200783 Name: FLINDERS REEF Lat: -17.72 Lon: 148.45 Height: 2.6 m
Data from the previous 72 hours. | See also: Recent months at Flinders Reef
Date/Time
EST
Temp
°C
App
Temp
°C
Dew
Point
Rel
Hum
%
Delta-T
°C
Wind Press
QNH
hPa
Press
MSL
hPa
Rain
since 9 am
mm
Dir
 
Spd
km/h
Gust
km/h
Spd
kts
Gust
kts
04/05:30pm - - - - - SE 24 28 13 15 1016.4 - -
04/05:24pm - - - - - SE 24 24 13 13 1016.3 1016.2 -
04/05:00pm - - - - - SE 24 28 13 15 1016.2 - -
04/04:30pm - - - - - SE 24 28 13 15 1016.0 - -
04/04:24pm - - - - - SE 24 - 13 - - 1015.9 -
04/04:00pm - - - - - SE 22 30 12 16 1015.9 - -
04/03:30pm - - - - - SSE 24 28 13 15 1015.8 - -
04/03:24pm - - - - - SE 24 - 13 - - 1015.7 -
04/03:00pm - - - - - SE 24 28 13 15 1015.9 - -
04/02:30pm - - - - - SSE 26 32 14 17 1016.0 - -
04/02:24pm - - - - - SSE 28 - 15 - - 1016.0 -
04/02:00pm - - - - - SE 26 30 14 16 1016.3 - -
04/01:30pm - - - - - SSE 26 30 14 16 1016.5 - -
04/01:24pm - - - - - SSE 28 - 15 - - 1016.5 -
04/01:00pm - - - - - SSE 30 32 16 17 1016.8 - -
04/12:30pm - - - - - SSE 28 32 15 17 1017.1 - -
04/12:24pm - - - - - SSE 28 - 15 - - 1017.1 -
04/12:00pm - - - - - SSE 32 35 17 19 1017.6 - -
04/11:30am - - - - - SSE 30 35 16 19 1017.9 - -
04/11:24am - - - - - SSE 30 - 16 - - 1017.9 -
04/11:00am - - - - - S 32 35 17 19 1018.2 - -
04/10:30am - - - - - S 30 35 16 19 1018.5 - -
04/10:24am - - - - - S 30 - 16 - - 1018.4 -
04/10:00am - - - - - S 30 33 16 18 1018.6 - -
04/09:30am - - - - - S 28 32 15 17 1018.6 - -
04/09:24am - - - - - S 28 - 15 - - 1018.5 -
04/09:00am - - - - - S 28 32 15 17 1018.5 - -
04/08:30am - - - - - S 26 32 14 17 1018.3 - -
04/08:24am - - - - - S 28 - 15 - - 1018.2 -
04/08:00am - - - - - S 26 30 14 16 1018.2 - -
04/07:30am - - - - - SSW 26 30 14 16 1017.9 - -
04/07:24am - - - - - SSW 24 - 13 - - 1017.8 -
04/07:00am - - - - - SW 19 20 10 11 1017.6 - -
04/06:30am - - - - - SW 17 20 9 11 1017.4 - -
04/06:24am - - - - - SW 17 - 9 - - 1017.3 -
04/06:00am - - - - - SW 15 20 8 11 1017.1 - -
04/05:30am - - - - - SW 15 20 8 11 1016.9 - -
04/05:24am - - - - - WSW 15 - 8 - - 1016.7 -
04/05:00am - - - - - WSW 15 19 8 10 1016.5 - -
04/04:30am - - - - - W 13 17 7 9 1016.3 - -
04/04:24am - - - - - W 15 - 8 - - 1016.2 -
04/04:00am - - - - - W 15 19 8 10 1016.3 - -
04/03:30am - - - - - WNW 15 17 8 9 1016.3 - -
04/03:24am - - - - - WNW 15 - 8 - - 1016.2 -
04/03:00am - - - - - NW 11 13 6 7 1016.4 - -
04/02:30am - - - - - NW 11 13 6 7 1016.4 - -
04/02:24am - - - - - NW 11 - 6 - - 1016.3 -
04/02:00am - - - - - NW 11 15 6 8 1016.5 - -
04/01:30am - - - - - NW 15 17 8 9 1016.4 - -
04/01:24am - - - - - NNW 15 - 8 - - 1016.4 -
04/01:00am - - - - - NNW 15 17 8 9 1016.6 - -
04/12:30am - - - - - N 19 20 10 11 1016.7 - -
04/12:24am - - - - - N 19 - 10 - - 1016.6 -
04/12:00am - - - - - N 19 22 10 12 1016.8 - -
 
Date/Time
EST
Temp
°C
App
Temp
°C
Dew
Point
Rel
Hum
%
Delta-T
°C
Wind Press
QNH
hPa
Press
MSL
hPa
Rain
since 9 am
mm
Dir
 
Spd
km/h
Gust
km/h
Spd
kts
Gust
kts
03/11:30pm - - - - - N 20 24 11 13 1016.9 - -
03/11:24pm - - - - - N 20 - 11 - - 1016.8 -
03/11:00pm - - - - - N 22 24 12 13 1017.0 - -
03/10:30pm - - - - - N 19 20 10 11 1017.2 - -
03/10:24pm - - - - - N 19 - 10 - - 1017.1 -
03/10:00pm - - - - - N 15 17 8 9 1017.4 - -
03/09:30pm - - - - - N 15 17 8 9 1017.2 - -
03/09:24pm - - - - - N 15 - 8 - - 1017.1 -
03/09:00pm - - - - - N 15 17 8 9 1017.2 - -
03/08:30pm - - - - - N 11 13 6 7 1017.1 - -
03/08:24pm - - - - - N 9 - 5 - - 1017.0 -
03/08:00pm - - - - - N 7 9 4 5 1017.0 - -
03/07:30pm - - - - - NNW 7 9 4 5 1016.8 - -
03/07:24pm - - - - - NNW 7 - 4 - - 1016.7 -
03/07:00pm - - - - - NNW 7 9 4 5 1016.6 - -
03/06:30pm - - - - - NW 9 11 5 6 1016.3 - -
03/06:24pm - - - - - NW 9 - 5 - - 1016.2 -
03/06:00pm - - - - - WNW 7 11 4 6 1016.1 - -
03/05:30pm - - - - - NW 9 13 5 7 1016.2 - -
03/05:24pm - - - - - NW 9 - 5 - - 1016.0 -
03/05:00pm - - - - - NW 11 13 6 7 1016.0 - -
03/04:30pm - - - - - NW 11 13 6 7 1015.8 - -
03/04:24pm - - - - - NW 11 - 6 - - 1015.6 -
03/04:00pm - - - - - N 15 17 8 9 1015.6 - -
03/03:30pm - - - - - N 17 20 9 11 1015.5 - -
03/03:24pm - - - - - N 19 - 10 - - 1015.3 -
03/03:00pm - - - - - N 15 17 8 9 1015.8 - -
03/02:30pm - - - - - WNW 11 15 6 8 1016.4 - -
03/02:24pm - - - - - WNW 13 - 7 - - 1016.4 -
03/02:00pm - - - - - WNW 13 15 7 8 1016.8 - -
03/01:30pm - - - - - WNW 13 17 7 9 1017.3 - -
03/01:24pm - - - - - WNW 13 - 7 - - 1017.3 -
03/01:00pm - - - - - WNW 13 17 7 9 1017.6 - -
03/12:30pm - - - - - NW 13 17 7 9 1018.0 - -
03/12:24pm - - - - - NW 13 - 7 - - 1018.0 -
03/12:00pm - - - - - NNW 13 15 7 8 1018.5 - -
03/11:30am - - - - - NNW 11 15 6 8 1018.9 - -
03/11:24am - - - - - NNW 13 - 7 - - 1018.9 -
03/11:00am - - - - - NNW 13 15 7 8 1019.1 - -
03/10:30am - - - - - NNW 11 15 6 8 1019.5 - -
03/10:24am - - - - - NNW 11 - 6 - - 1019.5 -
03/10:00am - - - - - N 17 20 9 11 1019.3 - -
03/09:30am - - - - - N 20 24 11 13 1019.1 - -
03/09:24am - - - - - N 20 - 11 - - 1019.0 -
03/09:00am - - - - - N 20 24 11 13 1018.9 - -
03/08:30am - - - - - N 20 24 11 13 1018.7 - -
03/08:24am - - - - - N 22 - 12 - - 1018.6 -
03/08:00am - - - - - N 20 26 11 14 1018.5 - -
03/07:30am - - - - - N 22 26 12 14 1018.1 - -
03/07:24am - - - - - N 22 - 12 - - 1018.0 -
03/07:00am - - - - - N 24 30 13 16 1017.8 - -
03/06:30am - - - - - N 22 26 12 14 1017.5 - -
03/06:24am - - - - - N 22 - 12 - - 1017.4 -
03/06:00am - - - - - N 24 30 13 16 1017.3 - -
03/05:30am - - - - - N 22 28 12 15 1016.9 - -
03/05:24am - - - - - N 20 - 11 - - 1016.7 -
03/05:00am - - - - - N 22 26 12 14 1016.5 - -
03/04:30am - - - - - N 24 28 13 15 1016.3 - -
03/04:24am - - - - - N 24 - 13 - - 1015.9 -
03/04:00am - - - - - N 26 32 14 17 1015.7 - -
03/03:30am - - - - - NNE 26 30 14 16 1015.7 - -
03/03:24am - - - - - NNE 24 - 13 - - 1015.6 -
03/03:00am - - - - - NNE 24 28 13 15 1015.9 - -
03/02:30am - - - - - NNE 26 30 14 16 1015.9 - -
03/02:24am - - - - - NNE 26 - 14 - - 1015.9 -
03/02:00am - - - - - NE 26 32 14 17 1016.1 - -
03/01:30am - - - - - NNE 26 30 14 16 1016.2 - -
03/01:24am - - - - - NNE 26 - 14 - - 1016.1 -
03/01:00am - - - - - NNE 26 30 14 16 1016.4 - -
03/12:30am - - - - - NNE 26 30 14 16 1016.8 - -
03/12:24am - - - - - NNE 26 - 14 - - 1016.8 -
03/12:00am - - - - - NNE 26 30 14 16 1017.2 - -
 
Date/Time
EST
Temp
°C
App
Temp
°C
Dew
Point
Rel
Hum
%
Delta-T
°C
Wind Press
QNH
hPa
Press
MSL
hPa
Rain
since 9 am
mm
Dir
 
Spd
km/h
Gust
km/h
Spd
kts
Gust
kts
02/11:30pm - - - - - NE 24 28 13 15 1017.4 - -
02/11:24pm - - - - - NNE 24 - 13 - - 1017.4 -
02/11:00pm - - - - - NNE 26 30 14 16 1017.6 - -
02/10:30pm - - - - - NNE 26 30 14 16 1017.5 - -
02/10:24pm - - - - - NNE 26 - 14 - - 1017.4 -
02/10:00pm - - - - - NNE 24 28 13 15 1017.6 - -
02/09:30pm - - - - - NNE 22 26 12 14 1017.6 - -
02/09:24pm - - - - - NE 22 - 12 - - 1017.5 -
02/09:00pm - - - - - NNE 19 22 10 12 1017.6 - -
02/08:30pm - - - - - NE 19 22 10 12 1017.4 - -
02/08:24pm - - - - - NE 19 - 10 - - 1017.3 -
02/08:00pm - - - - - NNE 22 24 12 13 1017.1 - -
02/07:30pm - - - - - NNE 20 24 11 13 1016.9 - -
02/07:24pm - - - - - NNE 20 - 11 - - 1016.7 -
02/07:00pm - - - - - NNE 17 20 9 11 1016.7 - -
02/06:30pm - - - - - NNE 19 22 10 12 1016.6 - -
02/06:24pm - - - - - NNE 19 - 10 - - 1016.4 -
02/06:00pm - - - - - NNE 17 20 9 11 1016.4 - -
02/05:30pm - - - - - NE 17 19 9 10 1016.2 - -
02/05:24pm - - - - - NNE 17 - 9 - - 1016.1 -
02/05:00pm - - - - - NNE 17 20 9 11 1016.0 - -
02/04:30pm - - - - - NNE 15 17 8 9 1015.9 - -
02/04:24pm - - - - - NNE 15 - 8 - - 1015.7 -
02/04:00pm - - - - - NE 15 19 8 10 1015.8 - -
02/03:30pm - - - - - NE 15 17 8 9 1016.0 - -
02/03:24pm - - - - - NE 15 - 8 - - 1015.9 -
02/03:00pm - - - - - NNE 15 19 8 10 1016.2 - -
02/02:30pm - - - - - NNE 15 20 8 11 1016.5 - -
02/02:24pm - - - - - N 15 - 8 - - 1016.5 -
02/02:00pm - - - - - N 17 20 9 11 1016.8 - -
02/01:30pm - - - - - NNE 17 19 9 10 1017.3 - -
02/01:24pm - - - - - N 17 - 9 - - 1017.3 -
02/01:00pm - - - - - N 17 20 9 11 1017.7 - -
02/12:30pm - - - - - NNE 19 20 10 11 1018.2 - -
02/12:24pm - - - - - NNE 19 - 10 - - 1018.2 -
02/12:00pm - - - - - NNE 19 20 10 11 1018.7 - -
02/11:30am - - - - - NNE 19 20 10 11 1019.3 - -
02/11:24am - - - - - NNE 20 - 11 - - 1019.2 -
02/11:00am - - - - - NNE 20 24 11 13 1019.6 - -
02/10:30am - - - - - NE 20 24 11 13 1019.8 - -
02/10:24am - - - - - NE 20 - 11 - - 1019.8 -
02/10:00am - - - - - NE 20 26 11 14 1020.1 - -
02/09:30am - - - - - NE 24 28 13 15 1020.1 - -
02/09:24am - - - - - NE 24 - 13 - - 1019.9 -
02/09:00am - - - - - NE 26 30 14 16 1019.8 - -
02/08:30am - - - - - NE 24 28 13 15 1019.5 - -
02/08:24am - - - - - NE 26 - 14 - - 1019.3 -
02/08:00am - - - - - NE 26 28 14 15 1019.2 - -
02/07:30am - - - - - NE 24 28 13 15 1018.8 - -
02/07:24am - - - - - NNE 24 - 13 - - 1018.6 -
02/07:00am - - - - - NE 24 28 13 15 1018.4 - -
02/06:30am - - - - - NE 22 26 12 14 1017.9 - -
02/06:24am - - - - - NE 24 - 13 - - 1017.7 -
02/06:00am - - - - - NE 24 26 13 14 1017.5 - -
02/05:30am - - - - - NE 24 28 13 15 1017.3 - -
02/05:24am - - - - - NE 22 - 12 - - 1017.1 -
02/05:00am - - - - - NNE 22 26 12 14 1017.0 - -
02/04:30am - - - - - NNE 22 24 12 13 1016.8 - -
02/04:24am - - - - - NNE 22 - 12 - - 1016.7 -
02/04:00am - - - - - NNE 22 26 12 14 1016.8 - -
02/03:30am - - - - - NNE 24 28 13 15 1016.7 - -
02/03:24am - - - - - NNE 24 - 13 - - 1016.6 -
02/03:00am - - - - - NNE 26 30 14 16 1016.6 - -
02/02:30am - - - - - NNE 26 30 14 16 1016.5 - -
02/02:24am - - - - - NNE 26 - 14 - - 1016.4 -
02/02:00am - - - - - NNE 26 30 14 16 1016.5 - -
02/01:30am - - - - - NNE 28 32 15 17 1016.6 - -
02/01:24am - - - - - NNE 28 - 15 - - 1016.5 -
02/01:00am - - - - - NNE 30 33 16 18 1016.6 - -
02/12:30am - - - - - NE 28 33 15 18 1016.6 - -
02/12:24am - - - - - NE 28 - 15 - - 1016.5 -
02/12:00am - - - - - NE 28 32 15 17 1016.6 - -
 
Date/Time
EST
Temp
°C
App
Temp
°C
Dew
Point
Rel
Hum
%
Delta-T
°C
Wind Press
QNH
hPa
Press
MSL
hPa
Rain
since 9 am
mm
Dir
 
Spd
km/h
Gust
km/h
Spd
kts
Gust
kts
01/11:30pm - - - - - NE 28 33 15 18 1016.7 - -
01/11:24pm - - - - - NE 28 - 15 - - 1016.6 -
01/11:00pm - - - - - NNE 28 32 15 17 1016.6 - -
01/10:30pm - - - - - NE 28 33 15 18 1016.6 - -
01/10:24pm - - - - - NE 30 - 16 - - 1016.5 -
01/10:00pm - - - - - NE 28 33 15 18 1016.5 - -
01/09:30pm - - - - - NNE 26 30 14 16 1016.4 - -
01/09:24pm - - - - - NE 26 - 14 - - 1016.2 -
01/09:00pm - - - - - NE 26 28 14 15 1016.2 - -
01/08:30pm - - - - - NE 24 28 13 15 1016.0 - -
01/08:24pm - - - - - NE 22 - 12 - - 1015.8 -
01/08:00pm - - - - - NE 22 26 12 14 1015.7 - -
01/07:30pm - - - - - NE 22 26 12 14 1015.5 - -
01/07:24pm - - - - - NE 22 - 12 - - 1015.3 -
01/07:00pm - - - - - NE 20 22 11 12 1015.1 - -
01/06:30pm - - - - - NE 19 20 10 11 1014.6 - -
01/06:24pm - - - - - NE 19 - 10 - - 1014.5 -
01/06:00pm - - - - - ENE 19 20 10 11 1014.6 - -

Other Formats:

Comma delimited format used in spreadsheet applications
http://www.bom.gov.au/fwo/IDQ60801/IDQ60801.94290.axf

JavaScript Object Notation format (JSON) in row-major order
http://www.bom.gov.au/fwo/IDQ60801/IDQ60801.94290.json